Hlavní strana
METAR-TAF:

METAR-TAF

Letiště :

Acapulco, Mexiko

zeměpisná šířka: 16-46N, zeměpisná délka: 099-45W, výška: 5 m

Aktuální stav počasí

Zpráva byla vytvořena před 17 minutami, v 05:48 UTC
Bezvětří
Teplota 25°C
Vlhkost vzduchu 89%
Tlak 1010 hPa
Viditelnost: 9.7 km
Jasno

METAR: MMAA 230548Z 00000KT 6SM SKC 25/23 A2983 RMK SLP092 52003 964 HZY

Čas: 00:05 (06:05 UTC)

Předpověď počasí

Zpráva byla vytvořena před 59 minutami, v 05:06 UTC
Předpověď platná od 23 v 06 UTC do 24 v 12 UTC
Severoseverozápadní vítr 5 kt
Viditelnost: 9.7 km
Jasno
zákal
Od 23 v 1800 UTC
Jihozápadní vítr 10 kt
Viditelnost: 10 km
Polojasno ve výšce 1500 ft
Oblačno až skoro zataženo ve výšce 25000 ft
Od 24 v 0600 UTC
Severoseverozápadní vítr 5 kt
Viditelnost: 9.7 km
Jasno
zákal

TAF: MMAA 230506Z 2306/2412 34005KT 6SM HZ SKC TX30/2320Z TN23/2312Z FM231800 23010KT P6SM SCT015 BKN250 FM240600 34005KT 6SM HZ SKC

Stav a předpovědi počasí z více než 4 000 letišť (zprávy METAR a TAF).

Červené a žluté tečky na mapě představují dostupné meteorologické stanice.

Když kurzor umístíte na tečku, zobrazí se název stanice.

Pak kliknutím zobrazíte stav a předpověď počasí.

Chcete-li změnit mapu, kliknutím na zelené tlačítko se znaménkem +mapu přiblížíte, kliknutím na zelené tlačítko se znaménkem – mapu oddálíte a kliknutím na zelené šipky přejdete na sousední mapy.


METAR-TAF: